CEN5 weather

Cold Lake Regional Airport
Cold Lake, Alberta, Canada

Public forecast

Using degrees Celsius for public forecast. Weather courtesy of forecast.io.

METAR (pilot weather report)

Closest report is CFB Cold Lake, 4.4 nm (8.1 km) S. Retrieved 2019/04/21 10:00 UTC (15 minutes ago):

CYOD 211000Z 26004KT 15SM FEW050 BKN085 01/M01 A3006 RMK SC1AC5 SLP199

TAF (pilot weather forecast)

Closest forecast is CFB Cold Lake, 4.4 nm (8.1 km) S. Retrieved 2019/04/21 06:35 UTC (4 hours ago):

TAF CYOD 210530Z 2106/2206 30005KT P6SM SCT080 TEMPO 2106/2108 BKN080 FM210800 28005KT P6SM SCT080 FM220200 14005KT P6SM SCT140 RMK NXT FCST BY 211200Z